Time,TemperatureF,DewpointF,PressureIn,WindDirection,WindDirectionDegrees,WindSpeedMPH,WindSpeedGustMPH,Humidity,HourlyPrecipIn,Conditions,Clouds,dailyrainin,SoftwareType,DateUTC
2013-03-08 00:02:00,30.0,22.0,30.00,ENE,75,1.0,6.0,71,0.00,,,0.02,,2013-03-08 05:02:00,
2013-03-08 00:12:00,30.0,22.0,30.00,ENE,75,1.0,6.0,71,0.00,,,0.02,,2013-03-08 05:12:00,
2013-03-08 00:22:00,30.0,22.0,30.00,NE,56,0.0,0.0,73,0.00,,,0.02,,2013-03-08 05:22:00,
2013-03-08 00:32:00,30.0,22.0,30.00,NE,42,0.0,0.0,73,0.00,,,0.02,,2013-03-08 05:32:00,
2013-03-08 00:42:00,30.0,22.0,30.00,NE,42,0.0,0.0,73,0.00,,,0.02,,2013-03-08 05:42:00,
2013-03-08 00:52:00,30.0,23.0,30.00,ENE,76,0.0,0.0,74,0.00,,,0.02,,2013-03-08 05:52:00,
2013-03-08 01:01:00,30.0,23.0,30.00,East,83,0.0,3.0,74,0.00,,,0.02,,2013-03-08 06:01:00,
2013-03-08 01:11:00,30.0,23.0,30.00,East,83,0.0,3.0,74,0.00,,,0.02,,2013-03-08 06:11:00,
2013-03-08 01:22:00,30.0,22.0,29.99,ESE,102,0.0,0.0,73,0.00,,,0.02,,2013-03-08 06:22:00,
2013-03-08 01:32:00,29.0,22.0,29.99,NE,40,0.0,0.0,74,0.00,,,0.02,,2013-03-08 06:32:00,
2013-03-08 01:42:00,29.0,22.0,29.99,NE,40,0.0,0.0,74,0.00,,,0.02,,2013-03-08 06:42:00,
2013-03-08 01:52:00,29.0,22.0,29.99,NE,40,0.0,0.0,74,0.00,,,0.02,,2013-03-08 06:52:00,
2013-03-08 02:01:00,29.0,22.0,29.99,NE,40,0.0,0.0,74,0.00,,,0.02,,2013-03-08 07:01:00,
2013-03-08 02:11:00,29.0,22.0,29.99,NE,40,0.0,0.0,74,0.00,,,0.02,,2013-03-08 07:11:00,
2013-03-08 02:22:00,29.0,22.0,29.98,ESE,109,0.0,2.0,75,0.00,,,0.02,,2013-03-08 07:22:00,
2013-03-08 02:32:00,29.0,21.0,29.97,East,80,0.0,4.0,72,0.00,,,0.02,,2013-03-08 07:32:00,
2013-03-08 02:42:00,29.0,21.0,29.97,East,80,0.0,4.0,72,0.00,,,0.02,,2013-03-08 07:42:00,
2013-03-08 02:51:00,29.0,21.0,29.97,East,80,0.0,4.0,72,0.00,,,0.02,,2013-03-08 07:51:00,
2013-03-08 03:01:00,29.0,21.0,29.97,East,80,0.0,4.0,72,0.00,,,0.02,,2013-03-08 08:01:00,
2013-03-08 03:11:00,29.0,22.0,29.96,ENE,73,0.0,6.0,75,0.00,,,0.02,,2013-03-08 08:11:00,
2013-03-08 03:22:00,29.0,22.0,29.96,ENE,73,0.0,6.0,75,0.00,,,0.02,,2013-03-08 08:22:00,
2013-03-08 03:32:00,29.0,22.0,29.96,ENE,73,0.0,6.0,75,0.00,,,0.02,,2013-03-08 08:32:00,
2013-03-08 03:42:00,29.0,22.0,29.96,ENE,73,0.0,6.0,75,0.00,,,0.02,,2013-03-08 08:42:00,
2013-03-08 03:52:00,29.0,23.0,29.95,NW,325,0.0,1.0,78,0.00,,,0.02,,2013-03-08 08:52:00,
2013-03-08 04:03:00,29.0,23.0,29.95,NW,325,0.0,1.0,78,0.00,,,0.02,,2013-03-08 09:03:00,
2013-03-08 04:11:00,29.0,23.0,29.95,NW,325,0.0,1.0,78,0.00,,,0.02,,2013-03-08 09:11:00,
2013-03-08 04:21:00,29.0,23.0,29.95,NW,325,0.0,1.0,78,0.00,,,0.02,,2013-03-08 09:21:00,
2013-03-08 04:32:00,29.0,22.0,29.95,ESE,102,2.0,2.0,76,0.00,,,0.02,,2013-03-08 09:32:00,
2013-03-08 04:42:00,29.0,22.0,29.95,ESE,102,2.0,2.0,76,0.00,,,0.02,,2013-03-08 09:42:00,
2013-03-08 04:52:00,29.0,21.0,29.96,SE,138,0.0,0.0,72,0.00,,,0.02,,2013-03-08 09:52:00,
2013-03-08 05:01:00,29.0,21.0,29.96,SE,138,0.0,0.0,72,0.00,,,0.02,,2013-03-08 10:01:00,
2013-03-08 05:11:00,29.0,21.0,29.96,SE,138,0.0,0.0,72,0.00,,,0.02,,2013-03-08 10:11:00,
2013-03-08 05:21:00,29.0,21.0,29.96,NE,42,0.0,3.0,72,0.00,,,0.02,,2013-03-08 10:21:00,
2013-03-08 05:32:00,29.0,21.0,29.96,NE,42,0.0,3.0,72,0.00,,,0.02,,2013-03-08 10:32:00,
2013-03-08 05:42:00,29.0,21.0,29.96,NE,42,0.0,3.0,72,0.00,,,0.02,,2013-03-08 10:42:00,
2013-03-08 05:52:00,29.0,21.0,29.96,NE,49,0.0,3.0,71,0.00,,,0.02,,2013-03-08 10:52:00,
2013-03-08 06:01:00,29.0,21.0,29.96,NE,49,0.0,3.0,71,0.00,,,0.02,,2013-03-08 11:01:00,
2013-03-08 06:11:00,29.0,21.0,29.96,NE,49,0.0,3.0,71,0.00,,,0.02,,2013-03-08 11:11:00,
2013-03-08 07:02:00,30.0,20.0,29.96,SSE,151,0.0,5.0,65,0.00,,,0.02,,2013-03-08 12:02:00,
2013-03-08 07:11:00,30.0,20.0,29.96,SSE,151,0.0,5.0,65,0.00,,,0.02,,2013-03-08 12:11:00,
2013-03-08 07:22:00,30.0,20.0,29.96,SSE,151,0.0,5.0,65,0.00,,,0.02,,2013-03-08 12:22:00,
2013-03-08 07:32:00,30.0,18.0,29.97,East,86,0.0,4.0,61,0.00,,,0.02,,2013-03-08 12:32:00,
2013-03-08 07:43:00,30.0,18.0,29.97,East,86,0.0,4.0,61,0.00,,,0.02,,2013-03-08 12:43:00,
2013-03-08 07:53:00,30.0,18.0,29.97,East,86,0.0,4.0,61,0.00,,,0.02,,2013-03-08 12:53:00,
2013-03-08 08:02:00,30.0,18.0,29.97,East,86,0.0,4.0,61,0.00,,,0.02,,2013-03-08 13:02:00,
2013-03-08 08:11:00,30.0,18.0,29.97,East,86,0.0,4.0,61,0.00,,,0.02,,2013-03-08 13:11:00,
2013-03-08 09:33:00,34.0,20.0,29.97,WNW,282,0.0,5.0,55,0.01,,,0.03,,2013-03-08 14:33:00,
2013-03-08 09:42:00,34.0,20.0,29.97,WNW,282,0.0,5.0,55,0.01,,,0.03,,2013-03-08 14:42:00,
2013-03-08 09:53:00,34.0,20.0,29.97,WNW,282,0.0,5.0,55,0.01,,,0.03,,2013-03-08 14:53:00,
2013-03-08 10:03:00,35.0,21.0,29.97,ENE,69,0.0,5.0,56,0.00,,,0.03,,2013-03-08 15:03:00,
2013-03-08 10:12:00,35.0,21.0,29.97,ENE,69,0.0,5.0,56,0.00,,,0.03,,2013-03-08 15:12:00,
2013-03-08 10:22:00,35.0,21.0,29.97,ENE,69,0.0,5.0,56,0.00,,,0.03,,2013-03-08 15:22:00,
2013-03-08 10:32:00,35.0,21.0,29.97,ENE,69,0.0,5.0,56,0.00,,,0.03,,2013-03-08 15:32:00,
2013-03-08 14:22:00,48.0,18.0,29.98,NE,52,0.0,3.0,30,0.00,,,0.01,,2013-03-08 19:22:00,
2013-03-08 14:32:00,48.0,18.0,29.98,NE,52,0.0,3.0,30,0.00,,,0.01,,2013-03-08 19:32:00,
2013-03-08 14:42:00,48.0,18.0,29.98,NE,52,0.0,3.0,30,0.00,,,0.01,,2013-03-08 19:42:00,
2013-03-08 14:52:00,48.0,18.0,29.98,NE,52,0.0,3.0,30,0.00,,,0.01,,2013-03-08 19:52:00,
2013-03-08 15:01:00,46.0,20.0,29.98,WSW,246,0.0,1.0,35,0.00,,,0.01,,2013-03-08 20:01:00,
2013-03-08 15:11:00,46.0,20.0,29.98,WSW,246,0.0,1.0,35,0.00,,,0.01,,2013-03-08 20:11:00,
2013-03-08 15:22:00,46.0,20.0,29.98,WSW,246,0.0,1.0,35,0.00,,,0.01,,2013-03-08 20:22:00,
2013-03-08 15:32:00,46.0,20.0,29.98,WSW,246,0.0,1.0,35,0.00,,,0.01,,2013-03-08 20:32:00,
2013-03-08 17:02:00,41.0,18.0,30.01,ENE,73,0.0,0.0,39,0.00,,,0.01,,2013-03-08 22:02:00,
2013-03-08 17:12:00,41.0,18.0,30.01,ENE,73,0.0,0.0,39,0.00,,,0.01,,2013-03-08 22:12:00,
2013-03-08 17:22:00,41.0,18.0,30.01,ENE,73,0.0,0.0,39,0.00,,,0.01,,2013-03-08 22:22:00,
2013-03-08 17:32:00,41.0,18.0,30.01,ENE,73,0.0,0.0,39,0.00,,,0.01,,2013-03-08 22:32:00,
2013-03-08 17:53:00,40.0,20.0,30.03,ESE,120,0.0,6.0,45,0.00,,,0.01,,2013-03-08 22:53:00,
2013-03-08 18:02:00,40.0,20.0,30.03,ESE,120,0.0,6.0,45,0.00,,,0.01,,2013-03-08 23:02:00,
2013-03-08 18:12:00,40.0,20.0,30.03,ESE,120,0.0,6.0,45,0.00,,,0.01,,2013-03-08 23:12:00,
2013-03-08 18:22:00,39.0,21.0,30.04,SE,136,0.0,0.0,48,0.00,,,0.01,,2013-03-08 23:22:00,
2013-03-08 18:32:00,39.0,21.0,30.04,SE,136,0.0,0.0,48,0.00,,,0.01,,2013-03-08 23:32:00,
2013-03-08 18:42:00,39.0,21.0,30.04,SE,136,0.0,0.0,48,0.00,,,0.01,,2013-03-08 23:42:00,
2013-03-08 18:52:00,38.0,23.0,30.06,SSE,160,0.0,3.0,54,0.00,,,0.01,,2013-03-08 23:52:00,
2013-03-08 19:02:00,38.0,23.0,30.06,SSE,160,0.0,3.0,54,0.00,,,0.01,,2013-03-09 00:02:00,
2013-03-08 19:12:00,38.0,23.0,30.06,SSE,160,0.0,3.0,54,0.00,,,0.01,,2013-03-09 00:12:00,
2013-03-08 19:22:00,38.0,23.0,30.06,SSE,160,0.0,3.0,54,0.00,,,0.01,,2013-03-09 00:22:00,
2013-03-08 21:21:00,35.0,18.0,30.09,SW,224,0.0,0.0,50,0.00,,,0.01,,2013-03-09 02:21:00,
2013-03-08 21:31:00,35.0,18.0,30.09,SW,224,0.0,0.0,50,0.00,,,0.01,,2013-03-09 02:31:00,
2013-03-08 21:41:00,35.0,18.0,30.09,SW,224,0.0,0.0,50,0.00,,,0.01,,2013-03-09 02:41:00,
2013-03-08 21:51:00,35.0,18.0,30.09,SW,224,0.0,0.0,50,0.00,,,0.01,,2013-03-09 02:51:00,
2013-03-08 22:01:00,34.0,17.0,30.09,SSW,210,0.0,1.0,49,0.00,,,0.01,,2013-03-09 03:01:00,
2013-03-08 22:11:00,34.0,17.0,30.09,SSW,210,0.0,1.0,49,0.00,,,0.01,,2013-03-09 03:11:00,
2013-03-08 22:22:00,34.0,17.0,30.09,SSW,210,0.0,1.0,49,0.00,,,0.01,,2013-03-09 03:22:00,
2013-03-08 22:31:00,34.0,17.0,30.09,SSW,210,0.0,1.0,49,0.00,,,0.01,,2013-03-09 03:31:00,
2013-03-08 22:41:00,34.0,17.0,30.09,SSW,210,0.0,1.0,49,0.00,,,0.01,,2013-03-09 03:41:00,
2013-03-08 23:32:00,31.0,19.0,30.09,SSW,209,0.0,0.0,61,0.00,,,0.01,,2013-03-09 04:32:00,
2013-03-08 23:42:00,31.0,19.0,30.09,SSW,209,0.0,0.0,61,0.00,,,0.01,,2013-03-09 04:42:00,
2013-03-08 23:52:00,31.0,19.0,30.09,SSW,209,0.0,0.0,61,0.00,,,0.01,,2013-03-09 04:52:00,